sensor_id;sensor_type;location;lat;lon;timestamp;P1;durP1;ratioP1;P2;durP2;ratioP2
38397;SDS011;24179;52.094;4.408;2023-12-14T00:01:47;310.27;;;75.90;;
38397;SDS011;24179;52.094;4.408;2023-12-14T00:04:51;310.35;;;76.10;;
38397;SDS011;24179;52.094;4.408;2023-12-14T00:07:52;313.27;;;77.03;;
38397;SDS011;24179;52.094;4.408;2023-12-14T00:10:52;311.67;;;76.30;;
38397;SDS011;24179;52.094;4.408;2023-12-14T00:13:53;311.93;;;76.43;;
38397;SDS011;24179;52.094;4.408;2023-12-14T00:16:53;310.70;;;76.07;;
38397;SDS011;24179;52.094;4.408;2023-12-14T00:19:54;312.70;;;76.60;;
38397;SDS011;24179;52.094;4.408;2023-12-14T00:22:55;311.60;;;77.27;;
38397;SDS011;24179;52.094;4.408;2023-12-14T00:25:55;312.07;;;77.73;;
38397;SDS011;24179;52.094;4.408;2023-12-14T00:28:56;310.27;;;77.07;;
38397;SDS011;24179;52.094;4.408;2023-12-14T00:31:57;311.77;;;76.07;;
38397;SDS011;24179;52.094;4.408;2023-12-14T00:34:57;311.90;;;76.53;;
38397;SDS011;24179;52.094;4.408;2023-12-14T00:37:58;310.27;;;76.20;;
38397;SDS011;24179;52.094;4.408;2023-12-14T00:40:58;311.70;;;76.30;;
38397;SDS011;24179;52.094;4.408;2023-12-14T00:43:59;313.97;;;77.13;;
38397;SDS011;24179;52.094;4.408;2023-12-14T00:46:59;313.40;;;77.00;;
38397;SDS011;24179;52.094;4.408;2023-12-14T00:50:00;312.33;;;76.97;;
38397;SDS011;24179;52.094;4.408;2023-12-14T00:53:01;313.07;;;76.60;;
38397;SDS011;24179;52.094;4.408;2023-12-14T00:56:01;312.70;;;76.97;;
38397;SDS011;24179;52.094;4.408;2023-12-14T00:59:02;310.45;;;76.07;;
38397;SDS011;24179;52.094;4.408;2023-12-14T01:02:03;313.00;;;76.93;;
38397;SDS011;24179;52.094;4.408;2023-12-14T01:05:04;315.17;;;77.68;;
38397;SDS011;24179;52.094;4.408;2023-12-14T01:08:05;312.73;;;76.88;;
38397;SDS011;24179;52.094;4.408;2023-12-14T01:11:05;311.40;;;76.47;;
38397;SDS011;24179;52.094;4.408;2023-12-14T01:14:06;312.80;;;76.67;;
38397;SDS011;24179;52.094;4.408;2023-12-14T01:17:06;310.67;;;75.83;;
38397;SDS011;24179;52.094;4.408;2023-12-14T01:20:08;311.97;;;76.43;;
38397;SDS011;24179;52.094;4.408;2023-12-14T01:23:09;313.38;;;76.47;;
38397;SDS011;24179;52.094;4.408;2023-12-14T01:26:10;312.60;;;76.30;;
38397;SDS011;24179;52.094;4.408;2023-12-14T01:29:11;311.90;;;76.80;;
38397;SDS011;24179;52.094;4.408;2023-12-14T01:32:11;312.03;;;76.57;;
38397;SDS011;24179;52.094;4.408;2023-12-14T01:35:12;311.60;;;76.47;;
38397;SDS011;24179;52.094;4.408;2023-12-14T01:38:12;313.30;;;77.10;;
38397;SDS011;24179;52.094;4.408;2023-12-14T01:41:13;311.90;;;76.23;;
38397;SDS011;24179;52.094;4.408;2023-12-14T01:44:14;313.15;;;77.03;;
38397;SDS011;24179;52.094;4.408;2023-12-14T01:47:15;313.00;;;76.87;;
38397;SDS011;24179;52.094;4.408;2023-12-14T01:50:15;311.10;;;76.07;;
38397;SDS011;24179;52.094;4.408;2023-12-14T01:53:16;314.25;;;77.10;;
38397;SDS011;24179;52.094;4.408;2023-12-14T01:56:17;312.40;;;76.80;;
38397;SDS011;24179;52.094;4.408;2023-12-14T01:59:17;311.00;;;76.47;;
38397;SDS011;24179;52.094;4.408;2023-12-14T02:02:18;310.80;;;77.67;;
38397;SDS011;24179;52.094;4.408;2023-12-14T02:05:19;313.75;;;78.45;;
38397;SDS011;24179;52.094;4.408;2023-12-14T02:08:19;311.07;;;77.30;;
38397;SDS011;24179;52.094;4.408;2023-12-14T02:11:20;313.63;;;76.43;;
38397;SDS011;24179;52.094;4.408;2023-12-14T02:14:21;314.27;;;76.60;;
38397;SDS011;24179;52.094;4.408;2023-12-14T02:17:23;312.85;;;77.05;;
38397;SDS011;24179;52.094;4.408;2023-12-14T02:20:24;316.97;;;79.13;;
38397;SDS011;24179;52.094;4.408;2023-12-14T02:23:24;316.70;;;78.00;;
38397;SDS011;24179;52.094;4.408;2023-12-14T02:26:25;313.83;;;77.10;;
38397;SDS011;24179;52.094;4.408;2023-12-14T02:29:26;315.13;;;78.00;;
38397;SDS011;24179;52.094;4.408;2023-12-14T02:32:26;315.90;;;77.77;;
38397;SDS011;24179;52.094;4.408;2023-12-14T02:35:27;314.17;;;76.80;;
38397;SDS011;24179;52.094;4.408;2023-12-14T02:38:27;314.40;;;77.30;;
38397;SDS011;24179;52.094;4.408;2023-12-14T02:41:28;316.70;;;78.63;;
38397;SDS011;24179;52.094;4.408;2023-12-14T02:44:28;310.83;;;76.07;;
38397;SDS011;24179;52.094;4.408;2023-12-14T02:47:29;311.20;;;76.50;;
38397;SDS011;24179;52.094;4.408;2023-12-14T02:50:30;317.20;;;78.40;;
38397;SDS011;24179;52.094;4.408;2023-12-14T02:53:30;311.77;;;76.53;;
38397;SDS011;24179;52.094;4.408;2023-12-14T02:56:31;312.27;;;76.63;;
38397;SDS011;24179;52.094;4.408;2023-12-14T02:59:31;312.83;;;76.90;;
38397;SDS011;24179;52.094;4.408;2023-12-14T03:02:32;311.73;;;76.07;;
38397;SDS011;24179;52.094;4.408;2023-12-14T03:05:33;312.87;;;76.87;;
38397;SDS011;24179;52.094;4.408;2023-12-14T03:08:33;314.90;;;77.33;;
38397;SDS011;24179;52.094;4.408;2023-12-14T03:11:34;314.63;;;77.27;;
38397;SDS011;24179;52.094;4.408;2023-12-14T03:14:34;313.10;;;76.70;;
38397;SDS011;24179;52.094;4.408;2023-12-14T03:17:35;313.70;;;77.37;;
38397;SDS011;24179;52.094;4.408;2023-12-14T03:20:36;312.20;;;76.67;;
38397;SDS011;24179;52.094;4.408;2023-12-14T03:23:36;312.17;;;76.57;;
38397;SDS011;24179;52.094;4.408;2023-12-14T03:26:37;315.27;;;77.57;;
38397;SDS011;24179;52.094;4.408;2023-12-14T03:29:37;312.23;;;76.90;;
38397;SDS011;24179;52.094;4.408;2023-12-14T03:32:38;312.20;;;77.10;;
38397;SDS011;24179;52.094;4.408;2023-12-14T03:35:39;312.80;;;76.73;;
38397;SDS011;24179;52.094;4.408;2023-12-14T03:38:41;314.60;;;77.38;;
38397;SDS011;24179;52.094;4.408;2023-12-14T03:41:42;312.83;;;76.63;;
38397;SDS011;24179;52.094;4.408;2023-12-14T03:44:43;312.27;;;76.22;;
38397;SDS011;24179;52.094;4.408;2023-12-14T03:47:44;314.07;;;77.23;;
38397;SDS011;24179;52.094;4.408;2023-12-14T03:50:45;312.50;;;76.22;;
38397;SDS011;24179;52.094;4.408;2023-12-14T03:53:45;313.13;;;76.93;;
38397;SDS011;24179;52.094;4.408;2023-12-14T03:56:46;313.17;;;76.88;;
38397;SDS011;24179;52.094;4.408;2023-12-14T03:59:47;312.00;;;76.40;;
38397;SDS011;24179;52.094;4.408;2023-12-14T04:02:47;312.67;;;76.97;;
38397;SDS011;24179;52.094;4.408;2023-12-14T04:05:48;313.98;;;77.40;;
38397;SDS011;24179;52.094;4.408;2023-12-14T04:08:49;312.03;;;76.57;;
38397;SDS011;24179;52.094;4.408;2023-12-14T04:11:50;314.37;;;77.13;;
38397;SDS011;24179;52.094;4.408;2023-12-14T04:14:50;315.40;;;77.93;;
38397;SDS011;24179;52.094;4.408;2023-12-14T04:17:51;313.33;;;76.80;;
38397;SDS011;24179;52.094;4.408;2023-12-14T04:20:52;312.40;;;76.47;;
38397;SDS011;24179;52.094;4.408;2023-12-14T04:23:52;314.23;;;77.23;;
38397;SDS011;24179;52.094;4.408;2023-12-14T04:26:53;313.37;;;76.57;;
38397;SDS011;24179;52.094;4.408;2023-12-14T04:29:54;312.97;;;76.73;;
38397;SDS011;24179;52.094;4.408;2023-12-14T04:32:54;312.60;;;76.10;;
38397;SDS011;24179;52.094;4.408;2023-12-14T04:35:55;311.93;;;76.17;;
38397;SDS011;24179;52.094;4.408;2023-12-14T04:38:55;312.60;;;76.73;;
38397;SDS011;24179;52.094;4.408;2023-12-14T04:41:56;315.17;;;77.23;;
38397;SDS011;24179;52.094;4.408;2023-12-14T04:44:56;314.03;;;76.97;;
38397;SDS011;24179;52.094;4.408;2023-12-14T04:47:57;314.17;;;76.77;;
38397;SDS011;24179;52.094;4.408;2023-12-14T04:50:58;312.63;;;77.00;;
38397;SDS011;24179;52.094;4.408;2023-12-14T04:53:58;314.93;;;77.10;;
38397;SDS011;24179;52.094;4.408;2023-12-14T04:56:59;313.90;;;77.07;;
38397;SDS011;24179;52.094;4.408;2023-12-14T04:59:59;312.10;;;76.00;;
38397;SDS011;24179;52.094;4.408;2023-12-14T05:03:00;315.37;;;77.47;;
38397;SDS011;24179;52.094;4.408;2023-12-14T05:06:01;314.20;;;77.20;;
38397;SDS011;24179;52.094;4.408;2023-12-14T05:09:01;313.85;;;76.70;;
38397;SDS011;24179;52.094;4.408;2023-12-14T05:12:05;314.25;;;77.20;;
38397;SDS011;24179;52.094;4.408;2023-12-14T05:15:06;313.02;;;76.68;;
38397;SDS011;24179;52.094;4.408;2023-12-14T05:18:07;312.30;;;76.15;;
38397;SDS011;24179;52.094;4.408;2023-12-14T05:21:08;314.07;;;77.37;;
38397;SDS011;24179;52.094;4.408;2023-12-14T05:24:09;314.23;;;77.23;;
38397;SDS011;24179;52.094;4.408;2023-12-14T05:27:10;313.75;;;76.53;;
38397;SDS011;24179;52.094;4.408;2023-12-14T05:30:10;313.50;;;76.70;;
38397;SDS011;24179;52.094;4.408;2023-12-14T05:33:11;314.05;;;77.07;;
38397;SDS011;24179;52.094;4.408;2023-12-14T05:36:12;311.47;;;76.27;;
38397;SDS011;24179;52.094;4.408;2023-12-14T05:39:12;314.10;;;76.77;;
38397;SDS011;24179;52.094;4.408;2023-12-14T05:42:16;314.17;;;76.75;;
38397;SDS011;24179;52.094;4.408;2023-12-14T05:45:17;311.90;;;76.53;;
38397;SDS011;24179;52.094;4.408;2023-12-14T05:48:18;314.20;;;77.20;;
38397;SDS011;24179;52.094;4.408;2023-12-14T05:54:46;312.52;;;76.50;;
38397;SDS011;24179;52.094;4.408;2023-12-14T05:57:49;314.43;;;76.70;;
38397;SDS011;24179;52.094;4.408;2023-12-14T06:00:50;313.60;;;77.32;;
38397;SDS011;24179;52.094;4.408;2023-12-14T06:03:51;312.03;;;76.07;;
38397;SDS011;24179;52.094;4.408;2023-12-14T06:06:51;311.80;;;76.23;;
38397;SDS011;24179;52.094;4.408;2023-12-14T06:09:52;312.67;;;76.35;;
38397;SDS011;24179;52.094;4.408;2023-12-14T06:12:52;310.83;;;76.00;;
38397;SDS011;24179;52.094;4.408;2023-12-14T06:15:53;312.13;;;75.93;;
38397;SDS011;24179;52.094;4.408;2023-12-14T06:18:54;311.40;;;76.07;;
38397;SDS011;24179;52.094;4.408;2023-12-14T06:21:54;312.70;;;76.27;;
38397;SDS011;24179;52.094;4.408;2023-12-14T06:24:55;313.23;;;76.17;;
38397;SDS011;24179;52.094;4.408;2023-12-14T06:27:55;311.53;;;75.97;;
38397;SDS011;24179;52.094;4.408;2023-12-14T06:30:56;352.80;;;105.22;;
38397;SDS011;24179;52.094;4.408;2023-12-14T06:33:57;312.73;;;76.53;;
38397;SDS011;24179;52.094;4.408;2023-12-14T06:37:00;314.50;;;77.28;;
38397;SDS011;24179;52.094;4.408;2023-12-14T06:40:03;314.63;;;77.05;;
38397;SDS011;24179;52.094;4.408;2023-12-14T06:43:04;312.55;;;76.47;;
38397;SDS011;24179;52.094;4.408;2023-12-14T06:49:05;313.53;;;76.47;;
38397;SDS011;24179;52.094;4.408;2023-12-14T06:52:06;310.47;;;75.43;;
38397;SDS011;24179;52.094;4.408;2023-12-14T06:55:07;314.67;;;77.00;;
38397;SDS011;24179;52.094;4.408;2023-12-14T07:01:12;313.33;;;76.57;;
38397;SDS011;24179;52.094;4.408;2023-12-14T07:04:14;311.77;;;75.95;;
38397;SDS011;24179;52.094;4.408;2023-12-14T07:07:15;312.07;;;76.07;;
38397;SDS011;24179;52.094;4.408;2023-12-14T07:10:16;311.75;;;76.15;;
38397;SDS011;24179;52.094;4.408;2023-12-14T07:13:16;312.33;;;76.37;;
38397;SDS011;24179;52.094;4.408;2023-12-14T07:16:17;311.83;;;76.07;;
38397;SDS011;24179;52.094;4.408;2023-12-14T07:19:17;312.47;;;76.10;;
38397;SDS011;24179;52.094;4.408;2023-12-14T07:22:18;312.97;;;76.57;;
38397;SDS011;24179;52.094;4.408;2023-12-14T07:25:18;327.57;;;82.20;;
38397;SDS011;24179;52.094;4.408;2023-12-14T07:28:19;326.70;;;82.13;;
38397;SDS011;24179;52.094;4.408;2023-12-14T07:31:20;328.53;;;83.43;;
38397;SDS011;24179;52.094;4.408;2023-12-14T07:34:20;329.50;;;81.80;;
38397;SDS011;24179;52.094;4.408;2023-12-14T07:37:21;321.93;;;80.73;;
38397;SDS011;24179;52.094;4.408;2023-12-14T07:40:22;324.77;;;81.43;;
38397;SDS011;24179;52.094;4.408;2023-12-14T07:43:23;325.07;;;80.93;;
38397;SDS011;24179;52.094;4.408;2023-12-14T07:46:24;322.60;;;80.07;;
38397;SDS011;24179;52.094;4.408;2023-12-14T07:49:24;324.25;;;80.32;;
38397;SDS011;24179;52.094;4.408;2023-12-14T07:52:25;324.23;;;80.78;;
38397;SDS011;24179;52.094;4.408;2023-12-14T07:55:26;323.33;;;80.07;;
38397;SDS011;24179;52.094;4.408;2023-12-14T07:58:26;319.77;;;79.57;;
38397;SDS011;24179;52.094;4.408;2023-12-14T08:01:27;321.60;;;79.73;;
38397;SDS011;24179;52.094;4.408;2023-12-14T08:04:27;324.53;;;81.13;;
38397;SDS011;24179;52.094;4.408;2023-12-14T08:07:28;317.43;;;78.83;;
38397;SDS011;24179;52.094;4.408;2023-12-14T08:10:29;324.02;;;80.88;;
38397;SDS011;24179;52.094;4.408;2023-12-14T08:13:30;323.30;;;80.33;;
38397;SDS011;24179;52.094;4.408;2023-12-14T08:16:30;322.10;;;80.37;;
38397;SDS011;24179;52.094;4.408;2023-12-14T10:15:47;137.88;;;127.88;;
38397;SDS011;24179;52.094;4.408;2023-12-14T10:18:50;132.38;;;122.80;;
38397;SDS011;24179;52.094;4.408;2023-12-14T10:21:53;140.15;;;129.98;;
38397;SDS011;24179;52.094;4.408;2023-12-14T10:24:58;134.25;;;124.65;;
38397;SDS011;24179;52.094;4.408;2023-12-14T10:28:01;136.57;;;126.80;;
38397;SDS011;24179;52.094;4.408;2023-12-14T10:31:05;141.35;;;131.20;;
38397;SDS011;24179;52.094;4.408;2023-12-14T10:34:06;136.20;;;126.45;;
38397;SDS011;24179;52.094;4.408;2023-12-14T10:37:12;144.90;;;134.38;;
38397;SDS011;24179;52.094;4.408;2023-12-14T10:40:14;135.30;;;125.65;;
38397;SDS011;24179;52.094;4.408;2023-12-14T10:43:15;136.20;;;126.35;;
38397;SDS011;24179;52.094;4.408;2023-12-14T10:46:19;139.85;;;129.73;;
38397;SDS011;24179;52.094;4.408;2023-12-14T10:49:20;138.40;;;128.52;;
38397;SDS011;24179;52.094;4.408;2023-12-14T10:52:22;138.70;;;128.73;;
38397;SDS011;24179;52.094;4.408;2023-12-14T10:55:28;139.23;;;129.13;;
38397;SDS011;24179;52.094;4.408;2023-12-14T10:59:14;137.52;;;127.55;;
38397;SDS011;24179;52.094;4.408;2023-12-14T11:02:08;312.38;;;77.63;;
38397;SDS011;24179;52.094;4.408;2023-12-14T11:05:14;316.60;;;83.25;;
38397;SDS011;24179;52.094;4.408;2023-12-14T11:08:26;317.67;;;88.32;;
38397;SDS011;24179;52.094;4.408;2023-12-14T11:11:28;314.58;;;81.75;;
38397;SDS011;24179;52.094;4.408;2023-12-14T11:14:29;316.23;;;83.80;;
38397;SDS011;24179;52.094;4.408;2023-12-14T11:17:33;318.17;;;82.13;;
38397;SDS011;24179;52.094;4.408;2023-12-14T11:20:54;312.73;;;78.80;;
38397;SDS011;24179;52.094;4.408;2023-12-14T11:23:56;313.05;;;77.45;;
38397;SDS011;24179;52.094;4.408;2023-12-14T11:27:07;314.13;;;78.10;;
38397;SDS011;24179;52.094;4.408;2023-12-14T12:26:08;330.23;;;84.70;;
38397;SDS011;24179;52.094;4.408;2023-12-14T12:29:09;332.85;;;86.20;;
38397;SDS011;24179;52.094;4.408;2023-12-14T12:32:09;336.17;;;86.13;;
38397;SDS011;24179;52.094;4.408;2023-12-14T12:35:10;330.37;;;85.27;;
38397;SDS011;24179;52.094;4.408;2023-12-14T12:38:10;325.60;;;82.37;;
38397;SDS011;24179;52.094;4.408;2023-12-14T12:41:11;337.17;;;86.13;;
38397;SDS011;24179;52.094;4.408;2023-12-14T12:44:12;328.97;;;82.60;;
38397;SDS011;24179;52.094;4.408;2023-12-14T12:47:12;332.80;;;84.47;;
38397;SDS011;24179;52.094;4.408;2023-12-14T12:50:13;331.03;;;83.23;;
38397;SDS011;24179;52.094;4.408;2023-12-14T12:53:14;123.17;;;114.27;;
38397;SDS011;24179;52.094;4.408;2023-12-14T12:56:14;111.17;;;103.63;;
38397;SDS011;24179;52.094;4.408;2023-12-14T12:59:15;114.23;;;106.33;;
38397;SDS011;24179;52.094;4.408;2023-12-14T13:02:17;110.85;;;103.30;;
38397;SDS011;24179;52.094;4.408;2023-12-14T13:05:18;112.43;;;104.80;;
38397;SDS011;24179;52.094;4.408;2023-12-14T13:08:19;109.95;;;102.30;;
38397;SDS011;24179;52.094;4.408;2023-12-14T13:11:22;109.03;;;101.45;;
38397;SDS011;24179;52.094;4.408;2023-12-14T13:14:23;114.37;;;106.40;;
38397;SDS011;24179;52.094;4.408;2023-12-14T13:17:23;112.57;;;104.77;;
38397;SDS011;24179;52.094;4.408;2023-12-14T13:20:24;108.77;;;101.47;;
38397;SDS011;24179;52.094;4.408;2023-12-14T13:23:25;112.67;;;105.07;;
38397;SDS011;24179;52.094;4.408;2023-12-14T13:26:25;111.70;;;104.07;;
38397;SDS011;24179;52.094;4.408;2023-12-14T13:29:26;113.23;;;105.47;;
38397;SDS011;24179;52.094;4.408;2023-12-14T13:32:26;107.60;;;100.40;;
38397;SDS011;24179;52.094;4.408;2023-12-14T13:35:27;111.80;;;104.30;;
38397;SDS011;24179;52.094;4.408;2023-12-14T13:41:29;112.03;;;104.47;;
38397;SDS011;24179;52.094;4.408;2023-12-14T13:44:33;111.75;;;104.03;;
38397;SDS011;24179;52.094;4.408;2023-12-14T13:47:37;110.50;;;103.20;;
38397;SDS011;24179;52.094;4.408;2023-12-14T13:50:37;111.30;;;103.73;;
38397;SDS011;24179;52.094;4.408;2023-12-14T13:53:38;111.70;;;104.10;;
38397;SDS011;24179;52.094;4.408;2023-12-14T13:56:39;112.18;;;104.68;;
38397;SDS011;24179;52.094;4.408;2023-12-14T13:59:40;116.38;;;108.22;;
38397;SDS011;24179;52.094;4.408;2023-12-14T14:02:40;114.67;;;106.60;;
38397;SDS011;24179;52.094;4.408;2023-12-14T14:05:41;110.87;;;103.37;;
38397;SDS011;24179;52.094;4.408;2023-12-14T14:08:44;113.88;;;106.03;;
38397;SDS011;24179;52.094;4.408;2023-12-14T14:11:44;116.67;;;108.67;;
38397;SDS011;24179;52.094;4.408;2023-12-14T14:14:48;113.05;;;105.43;;
38397;SDS011;24179;52.094;4.408;2023-12-14T14:17:49;114.88;;;107.00;;
38397;SDS011;24179;52.094;4.408;2023-12-14T14:20:52;112.22;;;104.55;;
38397;SDS011;24179;52.094;4.408;2023-12-14T14:23:53;113.30;;;105.70;;
38397;SDS011;24179;52.094;4.408;2023-12-14T14:26:53;110.30;;;102.87;;
38397;SDS011;24179;52.094;4.408;2023-12-14T14:29:54;117.03;;;108.63;;
38397;SDS011;24179;52.094;4.408;2023-12-14T14:32:56;112.38;;;104.78;;
38397;SDS011;24179;52.094;4.408;2023-12-14T14:35:57;117.20;;;108.87;;
38397;SDS011;24179;52.094;4.408;2023-12-14T14:38:57;118.97;;;110.73;;
38397;SDS011;24179;52.094;4.408;2023-12-14T14:41:58;114.20;;;106.13;;
38397;SDS011;24179;52.094;4.408;2023-12-14T14:44:58;116.80;;;108.53;;
38397;SDS011;24179;52.094;4.408;2023-12-14T14:47:59;112.93;;;105.37;;
38397;SDS011;24179;52.094;4.408;2023-12-14T14:51:00;114.50;;;106.77;;
38397;SDS011;24179;52.094;4.408;2023-12-14T14:54:00;112.77;;;105.37;;
38397;SDS011;24179;52.094;4.408;2023-12-14T14:57:01;114.57;;;106.67;;
38397;SDS011;24179;52.094;4.408;2023-12-14T15:00:02;115.63;;;107.77;;
38397;SDS011;24179;52.094;4.408;2023-12-14T15:06:08;116.15;;;108.20;;
38397;SDS011;24179;52.094;4.408;2023-12-14T15:09:08;117.63;;;109.70;;
38397;SDS011;24179;52.094;4.408;2023-12-14T15:12:09;112.10;;;104.63;;
38397;SDS011;24179;52.094;4.408;2023-12-14T15:15:09;121.80;;;113.17;;
38397;SDS011;24179;52.094;4.408;2023-12-14T15:18:10;118.77;;;110.30;;
38397;SDS011;24179;52.094;4.408;2023-12-14T15:21:11;117.70;;;109.80;;
38397;SDS011;24179;52.094;4.408;2023-12-14T15:24:14;114.30;;;106.63;;
38397;SDS011;24179;52.094;4.408;2023-12-14T15:27:15;120.17;;;111.57;;
38397;SDS011;24179;52.094;4.408;2023-12-14T15:30:15;118.03;;;109.80;;
38397;SDS011;24179;52.094;4.408;2023-12-14T15:33:16;113.47;;;106.03;;
38397;SDS011;24179;52.094;4.408;2023-12-14T15:36:17;117.53;;;109.43;;
38397;SDS011;24179;52.094;4.408;2023-12-14T15:39:18;116.23;;;108.37;;
38397;SDS011;24179;52.094;4.408;2023-12-14T15:42:18;116.83;;;108.90;;
38397;SDS011;24179;52.094;4.408;2023-12-14T15:45:19;115.83;;;108.27;;
38397;SDS011;24179;52.094;4.408;2023-12-14T15:48:21;114.47;;;106.80;;
38397;SDS011;24179;52.094;4.408;2023-12-14T15:51:21;115.83;;;108.30;;
38397;SDS011;24179;52.094;4.408;2023-12-14T15:54:22;113.40;;;106.00;;
38397;SDS011;24179;52.094;4.408;2023-12-14T15:57:22;116.13;;;108.20;;
38397;SDS011;24179;52.094;4.408;2023-12-14T16:00:23;121.43;;;112.97;;
38397;SDS011;24179;52.094;4.408;2023-12-14T16:03:24;118.03;;;110.10;;
38397;SDS011;24179;52.094;4.408;2023-12-14T16:06:24;117.17;;;109.07;;
38397;SDS011;24179;52.094;4.408;2023-12-14T16:09:25;120.97;;;112.33;;
38397;SDS011;24179;52.094;4.408;2023-12-14T16:12:25;116.97;;;109.40;;
38397;SDS011;24179;52.094;4.408;2023-12-14T16:15:26;116.67;;;109.07;;
38397;SDS011;24179;52.094;4.408;2023-12-14T16:18:26;116.80;;;109.03;;
38397;SDS011;24179;52.094;4.408;2023-12-14T16:21:27;120.27;;;112.17;;
38397;SDS011;24179;52.094;4.408;2023-12-14T16:24:29;116.50;;;109.00;;
38397;SDS011;24179;52.094;4.408;2023-12-14T16:27:30;116.07;;;108.50;;
38397;SDS011;24179;52.094;4.408;2023-12-14T16:30:30;120.73;;;112.77;;
38397;SDS011;24179;52.094;4.408;2023-12-14T16:33:31;120.47;;;112.07;;
38397;SDS011;24179;52.094;4.408;2023-12-14T16:36:32;120.22;;;112.28;;
38397;SDS011;24179;52.094;4.408;2023-12-14T16:39:33;116.37;;;108.97;;
38397;SDS011;24179;52.094;4.408;2023-12-14T16:42:35;126.70;;;118.00;;
38397;SDS011;24179;52.094;4.408;2023-12-14T16:45:36;116.17;;;108.67;;
38397;SDS011;24179;52.094;4.408;2023-12-14T16:48:36;121.73;;;113.37;;
38397;SDS011;24179;52.094;4.408;2023-12-14T16:51:37;123.90;;;115.10;;
38397;SDS011;24179;52.094;4.408;2023-12-14T16:54:38;124.10;;;115.53;;
38397;SDS011;24179;52.094;4.408;2023-12-14T16:57:39;119.50;;;111.43;;
38397;SDS011;24179;52.094;4.408;2023-12-14T17:00:40;120.83;;;112.97;;
38397;SDS011;24179;52.094;4.408;2023-12-14T17:03:40;120.50;;;112.80;;
38397;SDS011;24179;52.094;4.408;2023-12-14T17:06:41;124.27;;;116.20;;
38397;SDS011;24179;52.094;4.408;2023-12-14T17:09:43;126.93;;;118.57;;
38397;SDS011;24179;52.094;4.408;2023-12-14T17:12:44;123.53;;;115.38;;
38397;SDS011;24179;52.094;4.408;2023-12-14T17:15:44;121.27;;;113.27;;
38397;SDS011;24179;52.094;4.408;2023-12-14T17:18:45;125.60;;;117.20;;
38397;SDS011;24179;52.094;4.408;2023-12-14T17:21:46;127.88;;;119.10;;
38397;SDS011;24179;52.094;4.408;2023-12-14T17:24:49;122.28;;;113.97;;
38397;SDS011;24179;52.094;4.408;2023-12-14T17:27:50;121.47;;;113.63;;
38397;SDS011;24179;52.094;4.408;2023-12-14T17:30:50;122.27;;;114.40;;
38397;SDS011;24179;52.094;4.408;2023-12-14T17:33:51;125.60;;;117.37;;
38397;SDS011;24179;52.094;4.408;2023-12-14T17:36:52;121.45;;;113.72;;
38397;SDS011;24179;52.094;4.408;2023-12-14T17:39:53;121.40;;;113.75;;
38397;SDS011;24179;52.094;4.408;2023-12-14T17:42:54;124.33;;;116.13;;
38397;SDS011;24179;52.094;4.408;2023-12-14T17:45:55;124.15;;;116.25;;
38397;SDS011;24179;52.094;4.408;2023-12-14T17:48:56;127.73;;;119.37;;
38397;SDS011;24179;52.094;4.408;2023-12-14T17:51:56;124.03;;;115.90;;
38397;SDS011;24179;52.094;4.408;2023-12-14T17:54:57;123.43;;;115.50;;
38397;SDS011;24179;52.094;4.408;2023-12-14T17:57:57;125.67;;;117.60;;
38397;SDS011;24179;52.094;4.408;2023-12-14T18:00:58;126.23;;;118.00;;
38397;SDS011;24179;52.094;4.408;2023-12-14T18:04:00;128.90;;;120.30;;
38397;SDS011;24179;52.094;4.408;2023-12-14T18:07:00;126.40;;;118.07;;
38397;SDS011;24179;52.094;4.408;2023-12-14T18:10:01;127.40;;;119.10;;
38397;SDS011;24179;52.094;4.408;2023-12-14T18:16:03;125.60;;;117.17;;
38397;SDS011;24179;52.094;4.408;2023-12-14T18:19:04;129.63;;;121.13;;
38397;SDS011;24179;52.094;4.408;2023-12-14T18:22:05;122.78;;;114.72;;
38397;SDS011;24179;52.094;4.408;2023-12-14T18:25:06;125.53;;;117.57;;
38397;SDS011;24179;52.094;4.408;2023-12-14T18:28:07;125.70;;;117.63;;
38397;SDS011;24179;52.094;4.408;2023-12-14T18:31:08;127.90;;;119.17;;
38397;SDS011;24179;52.094;4.408;2023-12-14T18:34:09;129.10;;;120.80;;
38397;SDS011;24179;52.094;4.408;2023-12-14T18:37:10;127.35;;;119.38;;
38397;SDS011;24179;52.094;4.408;2023-12-14T18:40:13;127.28;;;119.10;;
38397;SDS011;24179;52.094;4.408;2023-12-14T18:43:16;128.02;;;119.85;;
38397;SDS011;24179;52.094;4.408;2023-12-14T18:46:16;125.73;;;117.43;;
38397;SDS011;24179;52.094;4.408;2023-12-14T18:49:17;125.63;;;117.80;;
38397;SDS011;24179;52.094;4.408;2023-12-14T18:52:18;128.53;;;120.50;;
38397;SDS011;24179;52.094;4.408;2023-12-14T18:55:20;128.15;;;119.97;;
38397;SDS011;24179;52.094;4.408;2023-12-14T18:58:20;128.90;;;120.73;;
38397;SDS011;24179;52.094;4.408;2023-12-14T19:01:21;131.20;;;122.80;;
38397;SDS011;24179;52.094;4.408;2023-12-14T19:04:22;124.70;;;117.05;;
38397;SDS011;24179;52.094;4.408;2023-12-14T19:07:23;128.20;;;119.97;;
38397;SDS011;24179;52.094;4.408;2023-12-14T19:10:24;127.55;;;119.68;;
38397;SDS011;24179;52.094;4.408;2023-12-14T19:13:25;133.90;;;124.07;;
38397;SDS011;24179;52.094;4.408;2023-12-14T19:16:26;126.00;;;117.70;;
38397;SDS011;24179;52.094;4.408;2023-12-14T19:19:29;127.07;;;118.80;;
38397;SDS011;24179;52.094;4.408;2023-12-14T19:22:30;129.30;;;121.17;;
38397;SDS011;24179;52.094;4.408;2023-12-14T19:25:30;130.70;;;122.47;;
38397;SDS011;24179;52.094;4.408;2023-12-14T19:28:31;129.43;;;121.43;;
38397;SDS011;24179;52.094;4.408;2023-12-14T19:31:32;127.07;;;119.17;;
38397;SDS011;24179;52.094;4.408;2023-12-14T19:34:32;128.47;;;120.53;;
38397;SDS011;24179;52.094;4.408;2023-12-14T19:37:33;129.97;;;121.57;;
38397;SDS011;24179;52.094;4.408;2023-12-14T19:40:33;131.97;;;123.47;;
38397;SDS011;24179;52.094;4.408;2023-12-14T19:43:37;132.97;;;124.53;;
38397;SDS011;24179;52.094;4.408;2023-12-14T19:46:39;131.40;;;123.30;;
38397;SDS011;24179;52.094;4.408;2023-12-14T19:49:39;134.47;;;125.77;;
38397;SDS011;24179;52.094;4.408;2023-12-14T19:52:40;127.80;;;119.60;;
38397;SDS011;24179;52.094;4.408;2023-12-14T19:55:41;130.80;;;122.00;;
38397;SDS011;24179;52.094;4.408;2023-12-14T19:58:41;133.27;;;125.07;;
38397;SDS011;24179;52.094;4.408;2023-12-14T20:01:42;128.23;;;120.37;;
38397;SDS011;24179;52.094;4.408;2023-12-14T20:04:43;133.20;;;124.03;;
38397;SDS011;24179;52.094;4.408;2023-12-14T20:07:43;127.40;;;119.60;;
38397;SDS011;24179;52.094;4.408;2023-12-14T20:10:44;132.70;;;124.30;;
38397;SDS011;24179;52.094;4.408;2023-12-14T20:13:44;131.67;;;123.37;;
38397;SDS011;24179;52.094;4.408;2023-12-14T20:16:45;133.17;;;124.73;;
38397;SDS011;24179;52.094;4.408;2023-12-14T20:19:49;130.77;;;122.72;;
38397;SDS011;24179;52.094;4.408;2023-12-14T20:22:50;129.57;;;121.53;;
38397;SDS011;24179;52.094;4.408;2023-12-14T20:25:51;132.33;;;124.10;;
38397;SDS011;24179;52.094;4.408;2023-12-14T20:28:51;135.30;;;126.70;;